createdAt,value
2022-09-03T00:01:51.013Z,14.20
2022-09-03T00:04:32.837Z,14.20
2022-09-03T00:07:29.760Z,14.19
2022-09-03T00:10:05.997Z,14.19
2022-09-03T00:12:40.230Z,14.16
2022-09-03T00:15:24.523Z,14.15
2022-09-03T00:17:57.826Z,14.15
2022-09-03T00:20:34.661Z,14.14
2022-09-03T00:23:07.021Z,14.11
2022-09-03T00:25:41.565Z,14.10
2022-09-03T00:28:30.007Z,14.09
2022-09-03T00:31:18.796Z,14.09
2022-09-03T00:33:52.061Z,14.06
2022-09-03T00:36:42.353Z,14.06
2022-09-03T00:39:13.913Z,14.07
2022-09-03T00:42:06.879Z,14.05
2022-09-03T00:44:52.839Z,14.06
2022-09-03T00:48:03.574Z,14.09
2022-09-03T00:50:56.123Z,14.09
2022-09-03T00:53:32.793Z,14.11
2022-09-03T00:56:19.451Z,14.11
2022-09-03T00:59:25.321Z,14.10
2022-09-03T01:02:18.630Z,14.05
2022-09-03T01:05:08.682Z,14.01
2022-09-03T01:07:59.260Z,13.94
2022-09-03T01:10:46.283Z,13.90
2022-09-03T01:13:22.728Z,13.85
2022-09-03T01:16:05.912Z,13.83
2022-09-03T01:18:42.824Z,13.79
2022-09-03T01:21:35.021Z,13.74
2022-09-03T01:24:37.973Z,13.64
2022-09-03T01:27:35.490Z,13.58
2022-09-03T01:30:12.949Z,13.52
2022-09-03T01:33:03.051Z,13.44
2022-09-03T01:35:37.286Z,13.36
2022-09-03T01:38:43.557Z,13.26
2022-09-03T01:41:58.642Z,13.18
2022-09-03T01:45:01.992Z,13.10
2022-09-03T01:47:55.503Z,13.01
2022-09-03T01:51:00.342Z,12.91
2022-09-03T01:53:52.378Z,12.84
2022-09-03T01:56:59.517Z,12.76
2022-09-03T01:59:38.354Z,12.70
2022-09-03T02:02:20.299Z,12.64
2022-09-03T02:05:10.119Z,12.58
2022-09-03T02:07:49.252Z,12.52
2022-09-03T02:10:38.613Z,12.48
2022-09-03T02:13:28.837Z,12.43
2022-09-03T02:16:03.349Z,12.38
2022-09-03T02:18:37.623Z,12.32
2022-09-03T02:21:06.578Z,12.26
2022-09-03T02:23:34.742Z,12.23
2022-09-03T02:26:03.829Z,12.18
2022-09-03T02:28:33.280Z,12.14
2022-09-03T02:31:01.628Z,12.08
2022-09-03T02:33:31.444Z,12.01
2022-09-03T02:35:59.304Z,11.94
2022-09-03T02:38:27.555Z,11.89
2022-09-03T02:40:55.367Z,11.85
2022-09-03T02:43:38.901Z,11.79
2022-09-03T02:46:13.069Z,11.74
2022-09-03T02:48:41.362Z,11.67
2022-09-03T02:51:14.163Z,11.61
2022-09-03T02:53:43.331Z,11.51
2022-09-03T02:56:12.297Z,11.47
2022-09-03T02:58:41.593Z,11.42
2022-09-03T03:01:19.651Z,11.38
2022-09-03T03:03:53.265Z,11.36
2022-09-03T03:06:21.678Z,11.32
2022-09-03T03:08:51.615Z,11.28
2022-09-03T03:11:20.113Z,11.25
2022-09-03T03:13:48.509Z,11.22
2022-09-03T03:16:18.599Z,11.19
2022-09-03T03:18:47.488Z,11.15
2022-09-03T03:21:19.881Z,11.12
2022-09-03T03:23:48.629Z,11.08
2022-09-03T03:26:19.282Z,11.04
2022-09-03T03:28:49.136Z,11.00
2022-09-03T03:31:19.781Z,10.96
2022-09-03T03:33:53.350Z,10.90
2022-09-03T03:36:26.358Z,10.84
2022-09-03T03:38:56.224Z,10.81
2022-09-03T03:41:36.620Z,10.78
2022-09-03T03:44:08.276Z,10.75
2022-09-03T03:46:40.987Z,10.71
2022-09-03T03:49:11.229Z,10.69
2022-09-03T03:51:40.883Z,10.65
2022-09-03T03:54:09.517Z,10.62
2022-09-03T03:56:37.683Z,10.58
2022-09-03T03:59:05.869Z,10.56
2022-09-03T04:01:33.781Z,10.55
2022-09-03T04:04:03.360Z,10.53
2022-09-03T04:06:32.753Z,10.51
2022-09-03T04:09:01.576Z,10.50
2022-09-03T04:11:29.866Z,10.48
2022-09-03T04:14:02.724Z,10.47
2022-09-03T04:16:32.227Z,10.44
2022-09-03T04:19:08.751Z,10.46
2022-09-03T04:21:43.612Z,10.48
2022-09-03T04:24:11.746Z,10.53
2022-09-03T04:26:42.526Z,10.60
2022-09-03T04:29:10.979Z,10.66
2022-09-03T04:32:00.584Z,10.75
2022-09-03T04:34:31.771Z,10.87
2022-09-03T04:36:59.662Z,11.00
2022-09-03T04:39:28.416Z,11.12
2022-09-03T04:41:56.254Z,11.25
2022-09-03T04:44:28.044Z,11.41
2022-09-03T04:46:57.498Z,11.63
2022-09-03T04:49:26.571Z,11.84
2022-09-03T04:51:54.499Z,12.04
2022-09-03T04:54:22.975Z,12.22
2022-09-03T04:56:56.220Z,12.36
2022-09-03T04:59:27.249Z,12.57
2022-09-03T05:01:56.993Z,12.81
2022-09-03T05:04:26.738Z,13.04
2022-09-03T05:06:56.877Z,13.31
2022-09-03T05:09:26.373Z,13.56
2022-09-03T05:11:54.741Z,13.82
2022-09-03T05:14:23.548Z,14.08
2022-09-03T05:16:53.062Z,14.35
2022-09-03T05:19:23.256Z,14.58
2022-09-03T05:21:51.697Z,14.72
2022-09-03T05:24:19.659Z,14.90
2022-09-03T05:26:49.072Z,15.03
2022-09-03T05:29:16.871Z,15.19
2022-09-03T05:31:44.673Z,15.40
2022-09-03T05:34:18.356Z,15.61
2022-09-03T05:36:49.984Z,15.86
2022-09-03T05:39:18.300Z,16.08
2022-09-03T05:41:46.302Z,16.29
2022-09-03T05:44:14.762Z,16.55
2022-09-03T05:46:42.613Z,16.80
2022-09-03T05:49:11.859Z,17.00
2022-09-03T05:51:40.108Z,17.23
2022-09-03T05:54:09.058Z,17.44
2022-09-03T05:56:40.295Z,17.63
2022-09-03T05:59:09.737Z,17.84
2022-09-03T06:01:50.397Z,17.98
2022-09-03T06:04:37.174Z,18.15
2022-09-03T06:07:17.114Z,18.37
2022-09-03T06:09:44.992Z,18.48
2022-09-03T06:12:12.914Z,18.50
2022-09-03T06:14:40.880Z,18.49
2022-09-03T06:17:11.383Z,18.26
2022-09-03T06:19:39.410Z,18.02
2022-09-03T06:22:07.273Z,17.86
2022-09-03T06:24:35.185Z,17.70
2022-09-03T06:27:03.081Z,17.58
2022-09-03T06:29:30.855Z,17.51
2022-09-03T06:32:00.824Z,17.51
2022-09-03T06:34:29.795Z,17.53
2022-09-03T06:36:59.290Z,17.62
2022-09-03T06:39:27.352Z,17.69
2022-09-03T06:41:55.887Z,17.73
2022-09-03T06:44:28.175Z,17.79
2022-09-03T06:46:56.095Z,17.77
2022-09-03T06:49:26.389Z,17.80
2022-09-03T06:51:54.193Z,17.81
2022-09-03T06:54:22.532Z,17.92
2022-09-03T06:56:50.313Z,17.99
2022-09-03T06:59:18.139Z,17.93
2022-09-03T07:01:48.878Z,17.77
2022-09-03T07:04:20.135Z,17.64
2022-09-03T07:06:48.572Z,17.49
2022-09-03T07:09:19.242Z,17.39
2022-09-03T07:11:48.761Z,17.33
2022-09-03T07:14:19.100Z,17.26
2022-09-03T07:16:49.378Z,17.24
2022-09-03T07:19:17.668Z,17.31
2022-09-03T07:21:50.228Z,17.49
2022-09-03T07:24:22.747Z,17.69
2022-09-03T07:26:51.189Z,17.84
2022-09-03T07:29:23.131Z,17.96
2022-09-03T07:31:52.347Z,18.01
2022-09-03T07:34:25.645Z,17.94
2022-09-03T07:36:54.409Z,17.86
2022-09-03T07:39:23.044Z,17.88
2022-09-03T07:41:51.318Z,18.00
2022-09-03T07:44:20.564Z,18.06
2022-09-03T07:46:55.967Z,18.01
2022-09-03T07:49:26.976Z,17.99
2022-09-03T07:51:56.185Z,17.88
2022-09-03T07:54:26.236Z,17.87
2022-09-03T07:56:54.360Z,17.91
2022-09-03T07:59:24.630Z,17.98
2022-09-03T08:01:53.224Z,18.06
2022-09-03T08:04:22.242Z,17.99
2022-09-03T08:06:50.116Z,17.96
2022-09-03T08:09:18.087Z,18.05
2022-09-03T08:11:46.031Z,18.22
2022-09-03T08:14:14.629Z,18.42
2022-09-03T08:16:48.166Z,18.49
2022-09-03T08:19:18.969Z,18.51
2022-09-03T08:21:48.481Z,18.58
2022-09-03T08:24:19.276Z,18.68
2022-09-03T08:26:51.727Z,18.73
2022-09-03T08:29:21.548Z,18.83
2022-09-03T08:31:50.938Z,18.91
2022-09-03T08:34:19.973Z,19.00
2022-09-03T08:36:50.507Z,19.03
2022-09-03T08:39:18.583Z,19.16
2022-09-03T08:42:13.296Z,19.27
2022-09-03T08:44:49.337Z,19.36
2022-09-03T08:47:33.474Z,19.56
2022-09-03T08:50:23.986Z,19.77
2022-09-03T08:53:40.593Z,20.00
2022-09-03T08:56:14.970Z,20.22
2022-09-03T08:58:46.946Z,20.39
2022-09-03T09:01:52.028Z,20.60
2022-09-03T09:05:07.070Z,20.76
2022-09-03T09:08:13.214Z,20.86
2022-09-03T09:11:36.973Z,20.98
2022-09-03T09:14:05.214Z,21.14
2022-09-03T09:16:52.948Z,21.28
2022-09-03T09:19:41.845Z,21.37
2022-09-03T09:22:28.741Z,21.51
2022-09-03T09:25:01.546Z,21.68
2022-09-03T09:27:33.465Z,21.75
2022-09-03T09:30:05.181Z,21.76
2022-09-03T09:32:39.956Z,21.78
2022-09-03T09:35:18.697Z,21.92
2022-09-03T09:37:48.708Z,21.98
2022-09-03T09:40:34.983Z,22.01
2022-09-03T09:43:22.159Z,21.94
2022-09-03T09:45:53.423Z,21.96
2022-09-03T09:48:32.993Z,21.99
2022-09-03T09:51:14.902Z,22.07
2022-09-03T09:53:45.159Z,22.19
2022-09-03T09:56:24.882Z,22.22
2022-09-03T09:59:11.070Z,22.26
2022-09-03T10:01:45.437Z,22.31
2022-09-03T10:04:33.554Z,22.30
2022-09-03T10:07:32.228Z,22.27
2022-09-03T10:10:21.698Z,22.27
2022-09-03T10:13:03.183Z,22.33
2022-09-03T10:15:41.471Z,22.38
2022-09-03T10:18:30.513Z,22.39
2022-09-03T10:21:11.341Z,22.34
2022-09-03T10:23:57.899Z,22.36
2022-09-03T10:26:33.285Z,22.37
2022-09-03T10:29:07.197Z,22.33
2022-09-03T10:31:54.312Z,22.32
2022-09-03T10:34:38.924Z,22.36
2022-09-03T10:37:21.600Z,22.40
2022-09-03T10:40:07.971Z,22.42
2022-09-03T10:42:46.141Z,22.42
2022-09-03T10:45:20.153Z,22.41
2022-09-03T10:47:59.956Z,22.33
2022-09-03T10:50:35.080Z,22.37
2022-09-03T10:53:14.063Z,22.44
2022-09-03T10:56:02.877Z,22.50
2022-09-03T10:58:59.027Z,22.51
2022-09-03T11:01:47.958Z,22.61
2022-09-03T11:04:37.796Z,22.69
2022-09-03T11:07:13.516Z,22.76
2022-09-03T11:09:57.546Z,22.84
2022-09-03T11:12:35.232Z,22.78
2022-09-03T11:15:10.710Z,22.60
2022-09-03T11:17:45.562Z,22.49
2022-09-03T11:20:23.108Z,22.48
2022-09-03T11:22:58.760Z,22.57
2022-09-03T11:25:36.957Z,22.65
2022-09-03T11:28:23.858Z,22.75
2022-09-03T11:31:32.889Z,22.91
2022-09-03T11:34:14.189Z,23.00
2022-09-03T11:36:52.612Z,23.12
2022-09-03T11:39:32.714Z,23.22
2022-09-03T11:42:06.820Z,23.21
2022-09-03T11:44:59.913Z,23.31
2022-09-03T11:47:47.310Z,23.32
2022-09-03T11:50:30.537Z,23.13
2022-09-03T11:53:10.336Z,23.07
2022-09-03T11:55:57.231Z,23.16
2022-09-03T11:58:35.747Z,23.27
2022-09-03T12:01:16.031Z,23.39
2022-09-03T12:04:10.253Z,23.60
2022-09-03T12:06:49.012Z,23.71
2022-09-03T12:09:46.423Z,23.78
2022-09-03T12:12:26.637Z,23.91
2022-09-03T12:15:23.925Z,23.93
2022-09-03T12:18:20.053Z,23.55
2022-09-03T12:21:03.422Z,23.47
2022-09-03T12:23:49.039Z,23.43
2022-09-03T12:26:26.352Z,23.41
2022-09-03T12:29:00.997Z,23.39
2022-09-03T12:31:33.120Z,23.50
2022-09-03T12:34:16.332Z,23.65
2022-09-03T12:36:50.470Z,23.73
2022-09-03T12:42:25.428Z,24.21
2022-09-03T12:44:54.633Z,24.50
2022-09-03T12:47:33.996Z,24.75
2022-09-03T12:50:20.076Z,24.93
2022-09-03T12:52:48.029Z,24.96
2022-09-03T12:55:46.902Z,24.94
2022-09-03T12:58:31.848Z,24.77
2022-09-03T13:01:37.026Z,24.74
2022-09-03T13:04:11.875Z,24.54
2022-09-03T13:07:05.367Z,24.34
2022-09-03T13:09:38.032Z,24.11
2022-09-03T13:12:06.391Z,23.94
2022-09-03T13:14:47.784Z,23.86
2022-09-03T13:17:33.182Z,23.87
2022-09-03T13:20:30.009Z,23.90
2022-09-03T13:23:18.643Z,23.83
2022-09-03T13:26:10.715Z,23.78
2022-09-03T13:28:45.519Z,23.68
2022-09-03T13:31:43.761Z,23.76
2022-09-03T13:34:21.269Z,23.80
2022-09-03T13:37:13.071Z,23.80
2022-09-03T13:39:57.416Z,23.86
2022-09-03T13:42:41.603Z,24.02
2022-09-03T13:45:47.487Z,24.20
2022-09-03T13:48:43.327Z,24.35
2022-09-03T13:51:17.551Z,24.44
2022-09-03T13:54:05.168Z,24.43
2022-09-03T13:56:37.356Z,24.39
2022-09-03T13:59:20.592Z,24.49
2022-09-03T14:02:03.654Z,24.64
2022-09-03T14:04:58.901Z,24.71
2022-09-03T14:08:35.715Z,24.74
2022-09-03T14:11:19.860Z,24.66
2022-09-03T14:14:22.721Z,24.61
2022-09-03T14:16:57.099Z,24.47
2022-09-03T14:19:59.412Z,24.51
2022-09-03T14:22:54.417Z,24.55
2022-09-03T14:25:25.173Z,24.66
2022-09-03T14:28:13.126Z,24.63
2022-09-03T14:30:55.589Z,24.50
2022-09-03T14:33:47.908Z,24.62
2022-09-03T14:36:27.430Z,24.70
2022-09-03T14:39:23.562Z,24.81
2022-09-03T14:42:07.442Z,24.86
2022-09-03T14:44:54.298Z,24.88
2022-09-03T14:47:34.396Z,24.91
2022-09-03T14:50:33.068Z,24.98
2022-09-03T14:53:33.572Z,24.86
2022-09-03T14:56:13.426Z,24.59
2022-09-03T14:59:19.326Z,24.35
2022-09-03T15:01:56.312Z,24.14
2022-09-03T15:04:45.604Z,24.02
2022-09-03T15:07:14.422Z,23.87
2022-09-03T15:10:02.649Z,23.77
2022-09-03T15:12:40.809Z,23.67
2022-09-03T15:15:13.919Z,23.50
2022-09-03T15:18:09.047Z,23.27
2022-09-03T15:20:50.672Z,23.12
2022-09-03T15:23:23.690Z,23.00
2022-09-03T15:26:13.667Z,22.84
2022-09-03T15:29:10.482Z,22.63
2022-09-03T15:31:55.782Z,22.47
2022-09-03T15:34:49.071Z,22.35
2022-09-03T15:37:27.562Z,22.23
2022-09-03T15:40:22.422Z,22.10
2022-09-03T15:42:56.769Z,21.94
2022-09-03T15:45:46.656Z,21.88
2022-09-03T15:48:37.672Z,21.78
2022-09-03T15:51:14.142Z,21.64
2022-09-03T15:53:46.327Z,21.57
2022-09-03T15:56:24.009Z,21.54
2022-09-03T15:59:06.017Z,21.52
2022-09-03T16:01:41.644Z,21.49
2022-09-03T16:04:28.015Z,21.43
2022-09-03T16:07:05.872Z,21.31
2022-09-03T16:10:07.621Z,21.18
2022-09-03T16:12:53.794Z,21.08
2022-09-03T16:15:30.280Z,20.98
2022-09-03T16:18:06.877Z,20.87
2022-09-03T16:20:42.076Z,20.75
2022-09-03T16:23:23.153Z,20.67
2022-09-03T16:26:05.543Z,20.60
2022-09-03T16:28:48.062Z,20.57
2022-09-03T16:31:15.969Z,20.55
2022-09-03T16:34:05.460Z,20.50
2022-09-03T16:37:11.289Z,20.42
2022-09-03T16:40:02.749Z,20.30
2022-09-03T16:42:55.970Z,20.20
2022-09-03T16:45:48.151Z,20.13
2022-09-03T16:48:26.966Z,20.01
2022-09-03T16:51:54.191Z,19.87
2022-09-03T16:54:38.480Z,19.73
2022-09-03T16:57:24.625Z,19.63
2022-09-03T17:00:05.596Z,19.56
2022-09-03T17:03:01.767Z,19.50
2022-09-03T17:05:54.808Z,19.43
2022-09-03T17:09:00.581Z,19.35
2022-09-03T17:12:14.088Z,19.28
2022-09-03T17:15:27.619Z,19.24
2022-09-03T17:18:26.576Z,19.17
2022-09-03T17:21:12.417Z,19.04
2022-09-03T17:24:03.920Z,18.94
2022-09-03T17:26:53.593Z,18.83
2022-09-03T17:29:33.401Z,18.72
2022-09-03T17:32:21.275Z,18.63
2022-09-03T17:35:11.877Z,18.55
2022-09-03T17:38:05.481Z,18.48
2022-09-03T17:41:03.239Z,18.39
2022-09-03T17:43:45.649Z,18.33
2022-09-03T17:46:34.024Z,18.26
2022-09-03T17:49:03.475Z,18.16
2022-09-03T17:51:47.630Z,18.07
2022-09-03T17:54:35.756Z,17.96
2022-09-03T17:57:22.054Z,17.88
2022-09-03T18:00:06.127Z,17.77
2022-09-03T18:02:52.039Z,17.68
2022-09-03T18:05:42.565Z,17.59
2022-09-03T18:08:12.650Z,17.48
2022-09-03T18:11:10.731Z,17.38
2022-09-03T18:14:06.527Z,17.26
2022-09-03T18:16:41.259Z,17.18
2022-09-03T18:19:53.099Z,17.09
2022-09-03T18:22:45.330Z,16.99
2022-09-03T18:25:33.591Z,16.92
2022-09-03T18:28:26.385Z,16.87
2022-09-03T18:31:13.155Z,16.82
2022-09-03T18:34:00.115Z,16.76
2022-09-03T18:36:50.715Z,16.70
2022-09-03T18:39:47.689Z,16.68
2022-09-03T18:42:57.603Z,16.66
2022-09-03T18:47:00.049Z,16.59
2022-09-03T18:49:27.826Z,16.50
2022-09-03T18:52:30.561Z,16.44
2022-09-03T18:55:52.253Z,16.38
2022-09-03T18:59:05.359Z,16.31
2022-09-03T19:01:58.909Z,16.23
2022-09-03T19:04:54.816Z,16.15
2022-09-03T19:07:59.936Z,16.07
2022-09-03T19:10:56.454Z,16.01
2022-09-03T19:13:58.611Z,15.95
2022-09-03T19:17:04.133Z,15.89
2022-09-03T19:20:15.802Z,15.82
2022-09-03T19:23:02.558Z,15.76
2022-09-03T19:25:49.794Z,15.70
2022-09-03T19:28:39.879Z,15.65
2022-09-03T19:31:53.905Z,15.62
2022-09-03T19:34:54.130Z,15.59
2022-09-03T19:37:54.135Z,15.55
2022-09-03T19:41:12.442Z,15.50
2022-09-03T19:44:11.603Z,15.45
2022-09-03T19:47:14.162Z,15.39
2022-09-03T19:50:20.115Z,15.35
2022-09-03T19:53:11.645Z,15.30
2022-09-03T19:56:07.826Z,15.26
2022-09-03T19:58:57.869Z,15.22
2022-09-03T20:01:52.811Z,15.18
2022-09-03T20:04:57.715Z,15.12
2022-09-03T20:07:45.254Z,15.08
2022-09-03T20:10:22.995Z,15.05
2022-09-03T20:13:16.215Z,15.01
2022-09-03T20:15:47.390Z,14.98
2022-09-03T20:18:30.878Z,14.95
2022-09-03T20:21:34.679Z,14.92
2022-09-03T20:24:28.264Z,14.86
2022-09-03T20:27:12.151Z,14.81
2022-09-03T20:29:58.946Z,14.77
2022-09-03T20:32:50.647Z,14.71
2022-09-03T20:35:50.912Z,14.67
2022-09-03T20:38:31.336Z,14.66
2022-09-03T20:41:21.369Z,14.64
2022-09-03T20:44:04.899Z,14.62
2022-09-03T20:46:50.056Z,14.58
2022-09-03T20:49:32.014Z,14.54
2022-09-03T20:52:10.397Z,14.50
2022-09-03T20:54:50.527Z,14.47
2022-09-03T20:57:58.123Z,14.44
2022-09-03T21:00:29.430Z,14.40
2022-09-03T21:03:09.274Z,14.37
2022-09-03T21:05:55.510Z,14.34
2022-09-03T21:08:32.593Z,14.30
2022-09-03T21:11:11.070Z,14.27
2022-09-03T21:14:14.704Z,14.24
2022-09-03T21:17:00.411Z,14.22
2022-09-03T21:19:55.666Z,14.21
2022-09-03T21:22:53.384Z,14.19
2022-09-03T21:25:27.179Z,14.18
2022-09-03T21:27:56.675Z,14.17
2022-09-03T21:30:24.747Z,14.17
2022-09-03T21:33:01.447Z,14.18
2022-09-03T21:36:02.581Z,14.19
2022-09-03T21:38:39.671Z,14.22
2022-09-03T21:41:26.561Z,14.24
2022-09-03T21:44:06.397Z,14.26
2022-09-03T21:46:52.176Z,14.28
2022-09-03T21:49:26.700Z,14.29
2022-09-03T21:52:21.254Z,14.28
2022-09-03T21:54:49.758Z,14.28
2022-09-03T21:57:43.864Z,14.28
2022-09-03T22:00:20.292Z,14.27
2022-09-03T22:02:51.050Z,14.26
2022-09-03T22:05:19.142Z,14.24
2022-09-03T22:07:53.878Z,14.23
2022-09-03T22:10:32.003Z,14.20
2022-09-03T22:13:35.893Z,14.17
2022-09-03T22:16:13.833Z,14.13
2022-09-03T22:18:44.314Z,14.11
2022-09-03T22:21:37.089Z,14.08
2022-09-03T22:24:38.753Z,14.05
2022-09-03T22:27:25.455Z,14.02
2022-09-03T22:30:08.651Z,13.97
2022-09-03T22:33:10.847Z,13.95
2022-09-03T22:36:05.809Z,13.90
2022-09-03T22:38:55.933Z,13.87
2022-09-03T22:41:43.735Z,13.83
2022-09-03T22:44:33.621Z,13.78
2022-09-03T22:47:24.842Z,13.74
2022-09-03T22:50:14.298Z,13.72
2022-09-03T22:52:50.638Z,13.70
2022-09-03T22:55:23.309Z,13.67
2022-09-03T22:58:09.522Z,13.65
2022-09-03T23:00:45.614Z,13.60
2022-09-03T23:03:25.413Z,13.56
2022-09-03T23:06:08.096Z,13.52
2022-09-03T23:08:53.729Z,13.49
2022-09-03T23:11:38.891Z,13.46
2022-09-03T23:14:18.670Z,13.43
2022-09-03T23:16:59.370Z,13.40
2022-09-03T23:19:41.316Z,13.37
2022-09-03T23:22:19.823Z,13.34
2022-09-03T23:24:58.697Z,13.31
2022-09-03T23:27:36.931Z,13.30
2022-09-03T23:30:06.159Z,13.28
2022-09-03T23:32:35.353Z,13.27
2022-09-03T23:35:12.331Z,13.25
2022-09-03T23:37:55.239Z,13.24
2022-09-03T23:40:49.440Z,13.22
2022-09-03T23:43:34.487Z,13.20
2022-09-03T23:46:22.998Z,13.19
2022-09-03T23:49:09.935Z,13.18
2022-09-03T23:52:02.882Z,13.16
2022-09-03T23:55:19.155Z,13.15
2022-09-03T23:57:58.910Z,13.14
